Time;durP1;ratioP1;P1;durP2;ratioP2;P2;SDS_P1;SDS_P2;PMS_P1;PMS_P2;Temp;Humidity;BMP_temperature;BMP_pressure;BME280_temperature;BME280_humidity;BME280_pressure;Samples;Min_cycle;Max_cycle;Signal;HPM_P1;HPM_P2
2022/09/15 00:00:53;;;;;;;56.33;9.77;;;;;;;;;;4967698;28;20027;-63
2022/09/15 00:03:21;;;;;;;47.92;9.70;;;;;;;;;;4953286;28;20034;-60
2022/09/15 00:05:48;;;;;;;51.25;8.77;;;;;;;;;;4970343;28;20023;-63
2022/09/15 00:08:15;;;;;;;45.50;8.82;;;;;;;;;;4970430;28;20039;-63
2022/09/15 00:10:50;;;;;;;48.25;8.40;;;;;;;;;;4972126;28;20046;-63
2022/09/15 00:13:17;;;;;;;44.97;9.13;;;;;;;;;;4971451;28;20031;-61
2022/09/15 00:15:44;;;;;;;51.17;11.38;;;;;;;;;;4970572;28;20038;-63
2022/09/15 00:18:11;;;;;;;68.70;11.98;;;;;;;;;;4971507;28;20041;-61
2022/09/15 00:20:42;;;;;;;85.05;15.50;;;;;;;;;;4971256;28;20027;-62
2022/09/15 00:23:09;;;;;;;84.28;14.75;;;;;;;;;;4972159;28;20501;-62
2022/09/15 00:25:42;;;;;;;80.60;13.90;;;;;;;;;;4971697;28;20031;-60
2022/09/15 00:28:08;;;;;;;;;;;;;;;;;;4972606;28;20499;-62
2022/09/15 00:30:35;;;;;;;103.18;19.17;;;;;;;;;;4971552;28;19910;-62
2022/09/15 00:33:02;;;;;;;106.35;22.27;;;;;;;;;;4954076;28;20384;-62
2022/09/15 00:35:29;;;;;;;173.55;31.20;;;;;;;;;;4972019;28;20501;-60
2022/09/15 00:37:56;;;;;;;109.07;22.10;;;;;;;;;;4971859;28;20685;-64
2022/09/15 00:40:23;;;;;;;170.48;32.25;;;;;;;;;;4971388;28;20027;-62
2022/09/15 00:42:50;;;;;;;161.43;27.88;;;;;;;;;;4969349;28;20578;-61
2022/09/15 00:45:17;;;;;;;151.38;28.98;;;;;;;;;;4972655;28;20056;-60
2022/09/15 00:47:44;;;;;;;142.05;28.67;;;;;;;;;;4975098;28;20419;-61
2022/09/15 00:50:16;;;;;;;121.15;24.75;;;;;;;;;;4972759;28;20604;-63
2022/09/15 00:52:51;;;;;;;117.90;25.08;;;;;;;;;;4971608;28;20027;-62
2022/09/15 00:55:20;;;;;;;108.13;24.60;;;;;;;;;;4973159;28;20489;-61
2022/09/15 00:57:56;;;;;;;109.07;23.88;;;;;;;;;;4986430;28;20042;-61
2022/09/15 01:00:26;;;;;;;107.07;23.05;;;;;;;;;;4992371;28;20026;-60
2022/09/15 01:02:53;;;;;;;101.93;21.50;;;;;;;;;;4992425;28;20014;-61
2022/09/15 01:05:22;;;;;;;96.03;20.95;;;;;;;;;;4974560;28;20034;-62
2022/09/15 01:07:58;;;;;;;90.32;21.35;;;;;;;;;;4972043;28;20054;-62
2022/09/15 01:10:27;;;;;;;78.45;19.15;;;;;;;;;;4992646;28;20476;-62
2022/09/15 01:12:58;;;;;;;93.45;20.15;;;;;;;;;;4992157;28;20439;-61
2022/09/15 01:15:40;;;;;;;92.90;18.92;;;;;;;;;;4992028;28;20050;-61
2022/09/15 01:18:07;;;;;;;78.00;18.17;;;;;;;;;;4992733;28;20201;-61
2022/09/15 01:20:52;;;;;;;76.93;17.83;;;;;;;;;;4992039;28;20026;-61
2022/09/15 01:23:19;;;;;;;75.13;16.90;;;;;;;;;;4971053;28;20155;-61
2022/09/15 01:25:54;;;;;;;79.90;17.90;;;;;;;;;;4972191;28;20026;-62
2022/09/15 01:28:34;;;;;;;68.97;16.65;;;;;;;;;;4976299;28;20031;-61
2022/09/15 01:31:06;;;;;;;69.70;16.50;;;;;;;;;;4975185;28;20027;-62
2022/09/15 01:33:36;;;;;;;59.17;15.40;;;;;;;;;;4974039;28;20508;-60
2022/09/15 01:36:12;;;;;;;70.60;16.42;;;;;;;;;;4974894;28;20045;-60
2022/09/15 01:38:59;;;;;;;59.10;14.90;;;;;;;;;;4975260;28;20433;-63
2022/09/15 01:41:33;;;;;;;63.35;14.98;;;;;;;;;;4973224;28;20034;-66
2022/09/15 01:44:21;;;;;;;77.40;14.32;;;;;;;;;;4974588;28;20034;-61
2022/09/15 01:46:52;;;;;;;64.10;14.25;;;;;;;;;;4975547;28;20093;-60
2022/09/15 01:49:25;;;;;;;61.17;14.18;;;;;;;;;;4975438;28;20033;-62
2022/09/15 01:51:53;;;;;;;70.90;13.98;;;;;;;;;;4973107;28;20027;-61
2022/09/15 01:54:22;;;;;;;65.28;13.70;;;;;;;;;;4976130;28;20037;-62
2022/09/15 01:56:49;;;;;;;59.75;13.23;;;;;;;;;;4975596;28;20520;-60
2022/09/15 01:59:16;;;;;;;48.15;11.27;;;;;;;;;;4976256;28;20034;-60
2022/09/15 02:01:50;;;;;;;57.55;12.52;;;;;;;;;;4976159;28;20038;-58
2022/09/15 02:04:23;;;;;;;55.28;12.07;;;;;;;;;;4975549;28;20031;-56
2022/09/15 02:07:10;;;;;;;41.83;12.13;;;;;;;;;;4975573;28;20034;-60
2022/09/15 02:09:57;;;;;;;59.55;11.32;;;;;;;;;;4963605;28;20035;-57
2022/09/15 02:12:36;;;;;;;53.75;11.25;;;;;;;;;;4942987;28;20038;-60
2022/09/15 02:15:08;;;;;;;52.20;11.38;;;;;;;;;;4972629;28;20509;-61
2022/09/15 02:17:37;;;;;;;53.47;11.40;;;;;;;;;;4974482;28;20512;-60
2022/09/15 02:20:32;;;;;;;50.25;12.52;;;;;;;;;;4973082;28;20389;-59
2022/09/15 02:23:02;;;;;;;46.45;11.50;;;;;;;;;;4974066;28;20038;-60
2022/09/15 02:25:31;;;;;;;48.63;9.98;;;;;;;;;;4973588;28;20038;-59
2022/09/15 02:28:01;;;;;;;57.35;10.35;;;;;;;;;;4972517;28;20122;-61
2022/09/15 02:30:30;;;;;;;45.63;10.30;;;;;;;;;;4973986;28;20022;-59
2022/09/15 02:33:01;;;;;;;51.40;9.60;;;;;;;;;;4973836;28;20113;-60
2022/09/15 02:35:29;;;;;;;45.45;9.35;;;;;;;;;;4955641;28;20060;-61
2022/09/15 02:37:57;;;;;;;45.65;9.75;;;;;;;;;;4972548;28;20734;-63
2022/09/15 02:40:24;;;;;;;41.05;9.75;;;;;;;;;;4973699;28;20085;-61
2022/09/15 02:42:53;;;;;;;44.47;9.90;;;;;;;;;;4971417;28;20031;-62
2022/09/15 02:45:20;;;;;;;37.40;9.82;;;;;;;;;;4971791;28;20041;-61
2022/09/15 02:47:47;;;;;;;36.35;10.05;;;;;;;;;;4984939;28;20041;-60
2022/09/15 02:50:14;;;;;;;41.88;9.75;;;;;;;;;;4972302;28;20023;-60
2022/09/15 02:52:41;;;;;;;37.28;9.07;;;;;;;;;;4972921;28;20027;-58
2022/09/15 02:55:08;;;;;;;37.40;9.40;;;;;;;;;;4972715;28;20101;-60
2022/09/15 02:57:35;;;;;;;35.63;8.80;;;;;;;;;;4970970;28;20524;-60
2022/09/15 03:00:13;;;;;;;38.70;9.23;;;;;;;;;;4973199;28;20042;-60
2022/09/15 03:02:40;;;;;;;33.05;8.32;;;;;;;;;;4975069;28;20489;-60
2022/09/15 03:05:08;;;;;;;39.17;9.00;;;;;;;;;;4975342;28;20033;-60
2022/09/15 03:07:37;;;;;;;32.45;8.48;;;;;;;;;;4975192;28;20114;-60
2022/09/15 03:10:05;;;;;;;27.52;7.85;;;;;;;;;;4975208;28;20015;-61
2022/09/15 03:12:37;;;;;;;30.70;8.38;;;;;;;;;;4975182;28;20026;-59
2022/09/15 03:15:04;;;;;;;26.02;7.75;;;;;;;;;;4973699;28;20055;-61
2022/09/15 03:17:33;;;;;;;38.28;7.72;;;;;;;;;;4973622;28;20129;-59
2022/09/15 03:20:01;;;;;;;24.63;7.30;;;;;;;;;;4955792;29;20035;-59
2022/09/15 03:22:28;;;;;;;27.15;8.27;;;;;;;;;;4955834;29;20023;-59
2022/09/15 03:24:55;;;;;;;26.25;7.00;;;;;;;;;;4955715;29;20035;-59
2022/09/15 03:27:21;;;;;;;26.80;7.45;;;;;;;;;;4955788;29;20038;-59
2022/09/15 03:29:49;;;;;;;20.23;6.50;;;;;;;;;;4955516;29;20031;-60
2022/09/15 03:32:16;;;;;;;25.38;6.78;;;;;;;;;;4955631;29;20031;-60
2022/09/15 03:34:43;;;;;;;27.65;7.25;;;;;;;;;;4954523;28;20031;-60
2022/09/15 03:37:10;;;;;;;25.33;6.70;;;;;;;;;;4971037;28;20035;-60
2022/09/15 03:39:37;;;;;;;26.58;7.07;;;;;;;;;;4974658;28;20117;-61
2022/09/15 03:42:05;;;;;;;25.73;6.80;;;;;;;;;;4974724;28;20038;-59
2022/09/15 03:44:31;;;;;;;20.70;6.35;;;;;;;;;;4973251;28;20034;-59
2022/09/15 03:46:59;;;;;;;17.58;5.43;;;;;;;;;;4974285;28;20035;-59
2022/09/15 03:49:25;;;;;;;24.55;5.72;;;;;;;;;;4974201;28;20461;-61
2022/09/15 03:55:02;;;;;;;19.92;6.03;;;;;;;;;;4975283;28;20162;-58
2022/09/15 03:57:29;;;;;;;23.88;6.25;;;;;;;;;;4974975;28;20030;-60
2022/09/15 03:59:56;;;;;;;21.67;5.72;;;;;;;;;;4973898;28;20026;-60
2022/09/15 04:02:23;;;;;;;23.50;6.28;;;;;;;;;;4974347;28;20038;-57
2022/09/15 04:04:50;;;;;;;19.25;5.63;;;;;;;;;;4972959;28;20114;-59
2022/09/15 04:07:17;;;;;;;17.42;5.30;;;;;;;;;;4972726;28;20026;-59
2022/09/15 04:09:44;;;;;;;19.02;4.93;;;;;;;;;;4974080;28;20067;-60
2022/09/15 04:12:11;;;;;;;17.42;5.07;;;;;;;;;;4974053;28;20265;-60
2022/09/15 04:14:38;;;;;;;16.23;5.38;;;;;;;;;;4974112;28;20102;-60
2022/09/15 04:17:05;;;;;;;13.95;4.88;;;;;;;;;;4973789;28;20046;-58
2022/09/15 04:19:32;;;;;;;22.35;5.20;;;;;;;;;;4974100;28;20035;-61
2022/09/15 04:21:59;;;;;;;15.23;4.80;;;;;;;;;;4973890;28;20102;-59
2022/09/15 04:24:26;;;;;;;15.43;4.68;;;;;;;;;;4974070;28;20033;-59
2022/09/15 04:26:54;;;;;;;14.20;4.70;;;;;;;;;;4972146;28;20090;-59
2022/09/15 04:29:21;;;;;;;13.93;4.95;;;;;;;;;;4973917;28;20027;-60
2022/09/15 04:31:49;;;;;;;17.30;4.72;;;;;;;;;;4973648;28;20098;-59
2022/09/15 04:34:16;;;;;;;16.50;4.32;;;;;;;;;;4973873;28;20027;-60
2022/09/15 04:36:43;;;;;;;13.50;4.40;;;;;;;;;;4972529;28;20073;-59
2022/09/15 04:39:10;;;;;;;19.17;4.13;;;;;;;;;;4973925;28;20126;-59
2022/09/15 04:41:37;;;;;;;16.70;4.38;;;;;;;;;;4972640;28;20106;-59
2022/09/15 04:44:04;;;;;;;10.73;4.05;;;;;;;;;;4956281;28;20046;-60
2022/09/15 04:46:31;;;;;;;13.52;3.58;;;;;;;;;;4973774;28;20109;-59
2022/09/15 04:48:58;;;;;;;11.95;4.15;;;;;;;;;;4973892;28;20030;-59
2022/09/15 04:51:26;;;;;;;16.67;4.25;;;;;;;;;;4973617;28;20049;-58
2022/09/15 04:53:53;;;;;;;14.57;3.75;;;;;;;;;;4973771;28;20496;-60
2022/09/15 04:56:21;;;;;;;11.73;3.83;;;;;;;;;;4973550;28;20528;-60
2022/09/15 04:58:52;;;;;;;9.15;3.10;;;;;;;;;;4972109;28;20058;-59
2022/09/15 05:01:23;;;;;;;12.95;4.13;;;;;;;;;;4975556;28;20054;-59
2022/09/15 05:03:50;;;;;;;13.05;3.70;;;;;;;;;;4977701;28;20031;-59
2022/09/15 05:06:18;;;;;;;10.02;3.67;;;;;;;;;;4977405;28;20401;-60
2022/09/15 05:08:48;;;;;;;15.90;3.80;;;;;;;;;;4976763;28;20027;-59
2022/09/15 05:11:16;;;;;;;11.20;3.78;;;;;;;;;;4976836;28;20493;-59
2022/09/15 05:13:43;;;;;;;10.35;3.25;;;;;;;;;;4977509;28;20031;-59
2022/09/15 05:16:12;;;;;;;8.82;3.45;;;;;;;;;;4975648;28;20050;-59
2022/09/15 05:18:40;;;;;;;12.93;3.70;;;;;;;;;;4977382;28;20029;-60
2022/09/15 05:21:07;;;;;;;7.82;2.95;;;;;;;;;;4975894;28;20023;-61
2022/09/15 05:23:35;;;;;;;14.60;3.67;;;;;;;;;;4977310;28;20035;-59
2022/09/15 05:26:03;;;;;;;9.57;3.30;;;;;;;;;;4977209;28;20058;-60
2022/09/15 05:28:31;;;;;;;7.35;2.90;;;;;;;;;;4977169;28;20027;-60
2022/09/15 05:30:58;;;;;;;9.95;3.53;;;;;;;;;;4975826;28;20031;-59
2022/09/15 05:33:25;;;;;;;12.48;3.13;;;;;;;;;;4977098;28;20035;-59
2022/09/15 05:35:57;;;;;;;6.10;2.90;;;;;;;;;;4977048;28;20527;-60
2022/09/15 05:38:25;;;;;;;9.55;2.95;;;;;;;;;;4977093;28;20393;-59
2022/09/15 05:40:52;;;;;;;9.40;3.10;;;;;;;;;;4976793;28;20082;-59
2022/09/15 05:43:20;;;;;;;8.05;2.97;;;;;;;;;;4976999;28;20027;-59
2022/09/15 05:45:56;;;;;;;10.88;3.17;;;;;;;;;;4975984;28;20030;-60
2022/09/15 05:48:23;;;;;;;7.22;2.72;;;;;;;;;;4976566;28;20081;-59
2022/09/15 05:50:51;;;;;;;7.88;2.85;;;;;;;;;;4976594;28;20030;-59
2022/09/15 05:53:18;;;;;;;5.22;2.45;;;;;;;;;;4975456;28;20393;-59
2022/09/15 05:55:45;;;;;;;6.25;2.50;;;;;;;;;;4976701;28;20437;-59
2022/09/15 05:58:12;;;;;;;6.50;2.30;;;;;;;;;;4976709;28;20489;-59
2022/09/15 06:00:40;;;;;;;9.07;2.90;;;;;;;;;;4973057;28;20042;-62
2022/09/15 06:03:08;;;;;;;6.03;2.45;;;;;;;;;;4975806;28;20038;-59
2022/09/15 06:05:35;;;;;;;6.55;2.78;;;;;;;;;;4976537;28;20035;-61
2022/09/15 06:08:02;;;;;;;8.45;2.33;;;;;;;;;;4976479;28;20039;-61
2022/09/15 06:10:29;;;;;;;7.75;2.65;;;;;;;;;;4976276;28;20038;-59
2022/09/15 06:12:56;;;;;;;6.68;2.85;;;;;;;;;;4976224;28;20031;-59
2022/09/15 06:15:23;;;;;;;5.38;2.40;;;;;;;;;;4976257;28;20055;-59
2022/09/15 06:17:51;;;;;;;6.13;2.33;;;;;;;;;;4976111;28;20409;-57
2022/09/15 06:20:18;;;;;;;7.57;2.20;;;;;;;;;;4973754;28;20026;-60
2022/09/15 06:22:45;;;;;;;7.40;2.35;;;;;;;;;;4976212;28;20027;-59
2022/09/15 06:25:12;;;;;;;4.55;2.10;;;;;;;;;;4976242;28;20034;-59
2022/09/15 06:27:40;;;;;;;6.47;2.28;;;;;;;;;;4976239;28;20035;-59
2022/09/15 06:30:07;;;;;;;5.10;2.22;;;;;;;;;;4975963;28;20109;-59
2022/09/15 06:32:37;;;;;;;6.82;2.42;;;;;;;;;;4976118;28;20019;-59
2022/09/15 06:35:07;;;;;;;6.20;2.08;;;;;;;;;;4975962;28;20035;-60
2022/09/15 06:37:34;;;;;;;5.07;1.85;;;;;;;;;;4973209;28;20035;-58
2022/09/15 06:40:03;;;;;;;5.00;2.00;;;;;;;;;;4975531;28;20093;-59
2022/09/15 06:42:30;;;;;;;5.22;2.08;;;;;;;;;;4975720;28;20031;-59
2022/09/15 06:44:57;;;;;;;6.72;2.63;;;;;;;;;;4975779;28;20027;-60
2022/09/15 06:47:24;;;;;;;6.80;2.10;;;;;;;;;;4975911;28;20038;-59
2022/09/15 06:49:53;;;;;;;5.25;2.25;;;;;;;;;;4975720;28;20027;-57
2022/09/15 06:52:20;;;;;;;5.72;2.10;;;;;;;;;;4975656;28;20081;-59
2022/09/15 06:54:48;;;;;;;6.57;2.40;;;;;;;;;;4972254;28;20037;-59
2022/09/15 06:57:15;;;;;;;5.60;2.30;;;;;;;;;;4975377;28;20399;-59
2022/09/15 06:59:43;;;;;;;5.45;2.00;;;;;;;;;;4975417;28;20022;-59
2022/09/15 07:02:10;;;;;;;4.25;2.20;;;;;;;;;;4975433;28;20362;-59
2022/09/15 07:04:37;;;;;;;4.80;2.00;;;;;;;;;;4975537;28;20030;-59
2022/09/15 07:07:04;;;;;;;8.80;2.20;;;;;;;;;;4975282;28;20035;-59
2022/09/15 07:09:31;;;;;;;5.97;2.10;;;;;;;;;;4974993;28;20515;-59
2022/09/15 07:11:58;;;;;;;5.43;1.80;;;;;;;;;;4972925;28;20090;-59
2022/09/15 07:14:25;;;;;;;6.15;2.10;;;;;;;;;;4975168;28;20485;-59
2022/09/15 07:16:52;;;;;;;4.32;1.85;;;;;;;;;;4975053;28;20057;-59
2022/09/15 07:19:19;;;;;;;4.57;2.00;;;;;;;;;;4974993;28;20401;-58
2022/09/15 07:21:46;;;;;;;4.78;1.83;;;;;;;;;;4974837;28;20041;-59
2022/09/15 07:24:13;;;;;;;5.50;2.25;;;;;;;;;;4974349;28;20432;-59
2022/09/15 07:26:40;;;;;;;3.97;1.65;;;;;;;;;;4975007;28;20110;-59
2022/09/15 07:29:07;;;;;;;6.43;2.13;;;;;;;;;;4972628;28;20023;-60
2022/09/15 07:31:35;;;;;;;5.00;2.05;;;;;;;;;;4974577;28;20038;-58
2022/09/15 07:34:02;;;;;;;3.20;1.70;;;;;;;;;;4974853;28;20046;-58
2022/09/15 07:36:29;;;;;;;4.72;1.70;;;;;;;;;;4974666;28;20520;-58
2022/09/15 07:38:56;;;;;;;4.40;1.98;;;;;;;;;;4974900;28;20030;-57
2022/09/15 07:41:28;;;;;;;3.63;1.90;;;;;;;;;;4974713;28;20102;-59
2022/09/15 07:43:56;;;;;;;6.75;2.20;;;;;;;;;;4974766;28;20035;-60
2022/09/15 07:46:24;;;;;;;4.95;1.73;;;;;;;;;;4973079;28;20019;-59
2022/09/15 07:48:53;;;;;;;4.22;1.88;;;;;;;;;;4974565;28;20090;-59
2022/09/15 07:51:20;;;;;;;3.92;1.85;;;;;;;;;;4974410;28;20093;-59
2022/09/15 07:53:48;;;;;;;6.72;2.00;;;;;;;;;;4974550;28;20027;-60
2022/09/15 07:56:19;;;;;;;4.75;2.00;;;;;;;;;;4974500;28;20030;-60
2022/09/15 07:58:46;;;;;;;6.32;1.95;;;;;;;;;;4974269;28;20362;-57
2022/09/15 08:01:14;;;;;;;4.70;1.92;;;;;;;;;;4974272;28;20057;-57
2022/09/15 08:03:45;;;;;;;4.88;2.13;;;;;;;;;;4973189;28;20039;-60
2022/09/15 08:06:12;;;;;;;3.53;1.70;;;;;;;;;;4974401;28;20158;-59
2022/09/15 08:08:39;;;;;;;3.35;1.60;;;;;;;;;;4974337;28;20026;-60
2022/09/15 08:11:10;;;;;;;7.40;1.98;;;;;;;;;;4974165;28;20034;-60
2022/09/15 08:13:38;;;;;;;3.85;1.90;;;;;;;;;;4974224;28;20027;-59
2022/09/15 08:16:09;;;;;;;4.85;1.83;;;;;;;;;;4973971;28;20055;-58
2022/09/15 08:18:37;;;;;;;3.70;1.60;;;;;;;;;;4972710;28;20105;-58
2022/09/15 08:21:05;;;;;;;5.07;2.15;;;;;;;;;;4973891;28;20177;-60
2022/09/15 08:23:32;;;;;;;3.67;1.73;;;;;;;;;;4974110;28;20110;-59
2022/09/15 08:25:59;;;;;;;4.50;1.67;;;;;;;;;;4974019;28;20541;-60
2022/09/15 08:28:27;;;;;;;3.38;1.77;;;;;;;;;;4974043;28;20049;-59
2022/09/15 08:31:04;;;;;;;4.00;1.55;;;;;;;;;;4973985;28;20033;-59
2022/09/15 08:33:31;;;;;;;4.93;1.90;;;;;;;;;;4974021;28;20085;-59
2022/09/15 08:36:03;;;;;;;4.78;1.75;;;;;;;;;;4971193;28;20508;-59
2022/09/15 08:38:30;;;;;;;2.95;1.75;;;;;;;;;;4973963;28;20035;-59
2022/09/15 08:40:59;;;;;;;3.67;1.63;;;;;;;;;;4973842;28;20027;-60
2022/09/15 08:43:27;;;;;;;2.28;1.60;;;;;;;;;;4973879;28;20118;-59
2022/09/15 08:45:57;;;;;;;2.92;1.80;;;;;;;;;;4973838;28;20082;-60
2022/09/15 08:48:27;;;;;;;3.40;2.15;;;;;;;;;;4972440;28;20034;-59
2022/09/15 08:50:56;;;;;;;4.80;1.88;;;;;;;;;;4973692;28;20022;-59
2022/09/15 08:53:29;;;;;;;3.05;1.80;;;;;;;;;;4972071;28;20033;-59
2022/09/15 08:55:59;;;;;;;3.15;1.83;;;;;;;;;;4973648;28;20034;-60
2022/09/15 08:58:35;;;;;;;3.53;1.70;;;;;;;;;;4973728;28;20031;-59
2022/09/15 09:01:10;;;;;;;6.07;2.05;;;;;;;;;;4973468;28;20497;-57
2022/09/15 09:03:47;;;;;;;5.47;1.95;;;;;;;;;;4972397;28;20396;-57
2022/09/15 09:06:17;;;;;;;3.05;1.75;;;;;;;;;;4973662;28;20050;-60
2022/09/15 09:08:50;;;;;;;4.47;2.00;;;;;;;;;;4973636;28;20026;-57
2022/09/15 09:11:30;;;;;;;3.10;1.60;;;;;;;;;;4971852;28;20027;-59
2022/09/15 09:14:07;;;;;;;3.25;1.67;;;;;;;;;;4973588;28;20037;-59
2022/09/15 09:16:34;;;;;;;3.10;1.90;;;;;;;;;;4973233;28;20078;-59
2022/09/15 09:19:10;;;;;;;4.78;1.70;;;;;;;;;;4973577;28;20022;-59
2022/09/15 09:21:48;;;;;;;8.23;1.88;;;;;;;;;;4973468;28;20127;-59
2022/09/15 09:24:25;;;;;;;6.03;2.10;;;;;;;;;;4973481;28;20031;-60
2022/09/15 09:26:54;;;;;;;2.53;1.70;;;;;;;;;;4972179;28;20389;-60
2022/09/15 09:29:33;;;;;;;3.35;1.60;;;;;;;;;;4969451;28;20027;-59
2022/09/15 09:32:01;;;;;;;4.25;1.88;;;;;;;;;;4972007;28;20446;-59
2022/09/15 09:34:45;;;;;;;4.47;2.20;;;;;;;;;;4973466;28;20114;-59
2022/09/15 09:37:16;;;;;;;4.38;2.13;;;;;;;;;;4971904;28;20046;-60
2022/09/15 09:39:43;;;;;;;4.68;1.83;;;;;;;;;;4973252;28;20034;-59
2022/09/15 09:42:14;;;;;;;7.50;1.90;;;;;;;;;;4973106;28;20034;-59
2022/09/15 09:44:41;;;;;;;5.68;1.92;;;;;;;;;;4973306;28;20023;-60
2022/09/15 09:47:08;;;;;;;4.35;1.90;;;;;;;;;;4973109;28;20030;-59
2022/09/15 09:49:39;;;;;;;6.45;2.00;;;;;;;;;;4976900;28;20019;-60
2022/09/15 09:52:06;;;;;;;3.75;2.05;;;;;;;;;;4976807;28;20074;-60
2022/09/15 09:54:34;;;;;;;7.32;2.05;;;;;;;;;;4976725;28;20018;-59
2022/09/15 09:57:13;;;;;;;4.93;2.13;;;;;;;;;;4976641;28;20031;-60
2022/09/15 09:59:42;;;;;;;4.40;1.83;;;;;;;;;;4976468;28;20055;-60
2022/09/15 10:02:14;;;;;;;6.65;2.30;;;;;;;;;;4974868;28;20030;-59
2022/09/15 10:04:46;;;;;;;8.88;2.33;;;;;;;;;;4976489;28;20081;-57
2022/09/15 10:07:14;;;;;;;5.60;2.20;;;;;;;;;;4976508;28;20042;-57
2022/09/15 10:09:48;;;;;;;6.18;2.10;;;;;;;;;;4976517;28;20519;-59
2022/09/15 10:12:20;;;;;;;4.72;2.17;;;;;;;;;;4976346;28;20061;-58
2022/09/15 10:14:50;;;;;;;3.53;1.97;;;;;;;;;;4976391;28;20027;-57
2022/09/15 10:17:25;;;;;;;6.95;2.47;;;;;;;;;;4976189;28;20054;-59
2022/09/15 10:19:54;;;;;;;11.60;2.88;;;;;;;;;;4974606;28;20038;-59
2022/09/15 10:22:40;;;;;;;7.85;2.40;;;;;;;;;;4976001;28;20026;-59
2022/09/15 10:25:19;;;;;;;10.38;2.60;;;;;;;;;;4976395;28;20053;-57
2022/09/15 10:28:05;;;;;;;9.63;2.50;;;;;;;;;;4975583;28;20077;-60
2022/09/15 10:30:32;;;;;;;8.45;2.20;;;;;;;;;;4974827;28;20393;-60
2022/09/15 10:33:17;;;;;;;10.13;2.75;;;;;;;;;;4976057;28;20046;-59
2022/09/15 10:35:44;;;;;;;10.10;2.25;;;;;;;;;;4975738;28;20468;-59
2022/09/15 10:38:20;;;;;;;9.32;2.20;;;;;;;;;;4974176;28;20039;-60
2022/09/15 10:40:47;;;;;;;9.00;2.33;;;;;;;;;;4976094;28;20106;-59
2022/09/15 10:43:30;;;;;;;10.10;2.55;;;;;;;;;;4975794;28;20027;-59
2022/09/15 10:45:56;;;;;;;;;;;;;;;;;;4975626;28;20081;-60
2022/09/15 10:48:31;;;;;;;5.80;2.30;;;;;;;;;;4975275;28;19910;-57
2022/09/15 10:51:09;;;;;;;9.45;2.95;;;;;;;;;;4974863;28;20081;-60
2022/09/15 10:53:48;;;;;;;9.35;2.78;;;;;;;;;;4988038;28;20042;-60
2022/09/15 10:56:24;;;;;;;11.77;2.58;;;;;;;;;;4972944;28;20030;-59
2022/09/15 10:59:09;;;;;;;9.20;2.70;;;;;;;;;;4974196;28;20031;-60
2022/09/15 11:01:48;;;;;;;13.32;2.85;;;;;;;;;;4974063;28;20043;-59
2022/09/15 11:04:24;;;;;;;7.75;2.45;;;;;;;;;;4968623;28;20102;-60
2022/09/15 11:06:51;;;;;;;9.68;2.53;;;;;;;;;;4972431;28;20062;-59
2022/09/15 11:09:18;;;;;;;12.48;2.75;;;;;;;;;;4973656;28;20022;-60
2022/09/15 11:11:45;;;;;;;14.32;3.13;;;;;;;;;;4973739;28;20489;-59
2022/09/15 11:14:23;;;;;;;13.70;3.58;;;;;;;;;;4973811;28;20027;-59
2022/09/15 11:16:51;;;;;;;15.70;3.25;;;;;;;;;;4972363;28;20497;-59
2022/09/15 11:19:36;;;;;;;11.63;3.13;;;;;;;;;;4973605;28;20030;-60
2022/09/15 11:22:11;;;;;;;11.63;3.28;;;;;;;;;;4974176;28;20102;-59
2022/09/15 11:24:51;;;;;;;16.27;3.72;;;;;;;;;;4971879;28;20027;-59
2022/09/15 11:27:39;;;;;;;21.73;4.18;;;;;;;;;;4956393;28;20023;-57
2022/09/15 11:30:16;;;;;;;20.63;4.15;;;;;;;;;;4963753;28;20046;-57
2022/09/15 11:32:55;;;;;;;17.65;4.18;;;;;;;;;;4972616;28;20113;-59
2022/09/15 11:35:28;;;;;;;22.67;4.80;;;;;;;;;;4973239;28;20065;-59
2022/09/15 11:37:59;;;;;;;26.02;4.45;;;;;;;;;;4973219;28;20489;-60
2022/09/15 11:40:32;;;;;;;24.25;4.47;;;;;;;;;;4971456;28;20139;-60
2022/09/15 11:43:22;;;;;;;33.22;5.03;;;;;;;;;;4971376;28;20031;-59
2022/09/15 11:45:51;;;;;;;30.10;5.75;;;;;;;;;;4973447;28;20076;-58
2022/09/15 11:48:29;;;;;;;26.83;5.05;;;;;;;;;;4973592;28;20023;-58
2022/09/15 11:50:58;;;;;;;35.80;5.63;;;;;;;;;;4973098;28;20041;-59
2022/09/15 11:53:33;;;;;;;35.55;5.90;;;;;;;;;;4972350;28;20512;-59
2022/09/15 11:56:13;;;;;;;31.38;4.93;;;;;;;;;;4973216;28;20084;-60
2022/09/15 11:58:40;;;;;;;26.85;5.30;;;;;;;;;;4973810;28;21542;-61
2022/09/15 12:01:24;;;;;;;21.25;5.38;;;;;;;;;;4973176;28;20034;-59
2022/09/15 12:03:55;;;;;;;24.58;5.38;;;;;;;;;;4967573;28;20465;-59
2022/09/15 12:06:23;;;;;;;33.88;5.82;;;;;;;;;;4973538;28;20030;-60
2022/09/15 12:09:06;;;;;;;29.40;4.75;;;;;;;;;;4973900;28;20416;-61
2022/09/15 12:11:40;;;;;;;29.33;5.43;;;;;;;;;;4972723;28;20479;-61
2022/09/15 12:14:10;;;;;;;32.35;5.40;;;;;;;;;;4972038;28;20030;-60
2022/09/15 12:16:37;;;;;;;21.42;4.80;;;;;;;;;;4972392;28;20050;-60
2022/09/15 12:19:24;;;;;;;21.80;4.88;;;;;;;;;;4972990;28;20046;-59
2022/09/15 12:21:58;;;;;;;31.83;5.55;;;;;;;;;;4970158;28;20073;-57
2022/09/15 12:24:44;;;;;;;28.17;5.78;;;;;;;;;;4971402;28;20034;-59
2022/09/15 12:27:15;;;;;;;26.60;5.53;;;;;;;;;;4971896;28;20026;-59
2022/09/15 12:29:52;;;;;;;30.10;6.40;;;;;;;;;;4973889;28;20475;-60
2022/09/15 12:32:20;;;;;;;25.08;5.40;;;;;;;;;;4973325;28;20033;-59
2022/09/15 12:34:56;;;;;;;26.20;5.75;;;;;;;;;;4973655;28;20384;-56
2022/09/15 12:37:24;;;;;;;42.83;6.50;;;;;;;;;;4973642;28;20062;-56
2022/09/15 12:39:52;;;;;;;27.45;5.70;;;;;;;;;;4973582;28;20448;-53
2022/09/15 12:42:20;;;;;;;23.35;5.78;;;;;;;;;;4973937;28;20066;-54
2022/09/15 12:44:56;;;;;;;31.27;6.10;;;;;;;;;;4959260;28;20672;-51
2022/09/15 12:47:23;;;;;;;31.42;7.15;;;;;;;;;;4969375;28;20029;-56
2022/09/15 12:49:51;;;;;;;36.92;5.88;;;;;;;;;;4973077;28;20027;-54
2022/09/15 12:52:20;;;;;;;33.30;6.03;;;;;;;;;;4973612;28;20101;-56
2022/09/15 12:54:52;;;;;;;34.78;5.90;;;;;;;;;;4973384;28;20033;-53
2022/09/15 12:57:30;;;;;;;31.70;6.88;;;;;;;;;;4972980;28;20129;-53
2022/09/15 13:00:17;;;;;;;35.83;6.05;;;;;;;;;;4973011;28;20031;-55
2022/09/15 13:02:46;;;;;;;33.33;7.00;;;;;;;;;;4965261;28;20485;-57
2022/09/15 13:05:13;;;;;;;34.85;6.32;;;;;;;;;;4973688;28;20027;-56
2022/09/15 13:07:56;;;;;;;30.63;6.22;;;;;;;;;;4970545;28;20023;-56
2022/09/15 13:10:42;;;;;;;35.38;6.30;;;;;;;;;;4973356;28;20090;-54
2022/09/15 13:13:22;;;;;;;50.35;7.82;;;;;;;;;;4973271;28;20063;-57
2022/09/15 13:15:50;;;;;;;37.03;7.10;;;;;;;;;;4973368;28;20051;-57
2022/09/15 13:18:19;;;;;;;33.83;6.43;;;;;;;;;;4973265;28;20034;-53
2022/09/15 13:20:50;;;;;;;28.83;6.55;;;;;;;;;;4973334;28;20036;-56
2022/09/15 13:23:22;;;;;;;40.13;7.03;;;;;;;;;;4975433;28;20023;-54
2022/09/15 13:25:50;;;;;;;36.60;6.82;;;;;;;;;;4976961;28;20385;-54
2022/09/15 13:28:17;;;;;;;37.00;6.70;;;;;;;;;;4977210;28;20023;-56
2022/09/15 13:31:05;;;;;;;42.15;7.65;;;;;;;;;;4977024;28;20023;-56
2022/09/15 13:33:50;;;;;;;33.63;6.97;;;;;;;;;;4976432;28;20053;-54
2022/09/15 13:36:29;;;;;;;39.80;7.13;;;;;;;;;;4974227;28;20105;-56
2022/09/15 13:38:56;;;;;;;31.08;6.78;;;;;;;;;;4972882;28;20109;-58
2022/09/15 13:41:32;;;;;;;40.20;6.65;;;;;;;;;;4975660;28;20027;-56
2022/09/15 13:44:05;;;;;;;42.90;6.85;;;;;;;;;;4973798;28;20122;-56
2022/09/15 13:46:41;;;;;;;33.60;7.35;;;;;;;;;;4976234;28;20037;-53
2022/09/15 13:49:19;;;;;;;39.65;7.57;;;;;;;;;;4969767;28;20027;-53
2022/09/15 13:51:51;;;;;;;34.25;6.80;;;;;;;;;;4976102;28;20037;-56
2022/09/15 13:54:18;;;;;;;34.80;7.20;;;;;;;;;;4973403;28;20416;-54
2022/09/15 13:56:47;;;;;;;46.25;7.10;;;;;;;;;;4975810;28;20045;-57
2022/09/15 13:59:20;;;;;;;49.90;7.55;;;;;;;;;;4957029;28;20035;-57
2022/09/15 14:01:47;;;;;;;43.53;6.82;;;;;;;;;;4974899;28;20122;-56
2022/09/15 14:04:20;;;;;;;43.88;7.60;;;;;;;;;;4975673;28;20112;-58
2022/09/15 14:06:53;;;;;;;44.58;7.32;;;;;;;;;;4973314;28;20616;-54
2022/09/15 14:09:20;;;;;;;46.47;8.02;;;;;;;;;;4962545;28;20042;-55
2022/09/15 14:11:48;;;;;;;46.00;7.47;;;;;;;;;;4975940;28;20023;-55
2022/09/15 14:14:21;;;;;;;51.38;8.15;;;;;;;;;;4975676;28;20369;-56
2022/09/15 14:16:49;;;;;;;42.55;7.63;;;;;;;;;;4975414;28;20057;-53
2022/09/15 14:19:35;;;;;;;39.40;8.10;;;;;;;;;;4975540;28;20034;-56
2022/09/15 14:22:24;;;;;;;49.80;8.13;;;;;;;;;;4964976;28;20397;-56
2022/09/15 14:24:52;;;;;;;55.00;8.90;;;;;;;;;;4965576;28;20043;-54
2022/09/15 14:27:21;;;;;;;48.15;7.45;;;;;;;;;;4995318;23;20055;-54
2022/09/15 14:29:53;;;;;;;50.22;7.32;;;;;;;;;;4969826;28;20029;-53
2022/09/15 14:32:20;;;;;;;62.05;8.65;;;;;;;;;;4974420;28;20022;-51
2022/09/15 14:34:48;;;;;;;46.35;7.80;;;;;;;;;;4974530;28;20030;-54
2022/09/15 14:37:23;;;;;;;49.35;8.10;;;;;;;;;;4975246;28;20118;-50
2022/09/15 14:39:52;;;;;;;57.55;8.70;;;;;;;;;;4975496;28;20031;-53
2022/09/15 14:42:22;;;;;;;60.95;8.25;;;;;;;;;;4975227;28;20504;-51
2022/09/15 14:44:50;;;;;;;50.08;8.40;;;;;;;;;;4974022;28;20031;-52
2022/09/15 14:47:17;;;;;;;49.35;9.15;;;;;;;;;;4972261;28;20379;-51
2022/09/15 14:49:44;;;;;;;54.58;9.23;;;;;;;;;;4975175;28;20042;-53
2022/09/15 14:52:23;;;;;;;63.45;9.57;;;;;;;;;;4975176;28;20043;-52
2022/09/15 14:54:50;;;;;;;58.50;8.95;;;;;;;;;;4975085;28;20479;-52
2022/09/15 14:57:20;;;;;;;78.95;11.45;;;;;;;;;;4971381;28;20500;-54